createdAt,value
2019-05-07T00:01:14.151Z,101250.59
2019-05-07T00:03:44.761Z,101247.53
2019-05-07T00:06:14.625Z,101248.61
2019-05-07T00:08:45.142Z,101250.77
2019-05-07T00:11:15.263Z,101243.42
2019-05-07T00:13:46.940Z,101246.65
2019-05-07T00:16:17.155Z,101239.31
2019-05-07T00:18:47.216Z,101241.62
2019-05-07T00:21:17.309Z,101241.64
2019-05-07T00:23:48.227Z,101235.55
2019-05-07T00:26:18.122Z,101237.33
2019-05-07T00:28:49.887Z,101238.59
2019-05-07T00:31:20.065Z,101236.45
2019-05-07T00:33:52.503Z,101239.50
2019-05-07T00:36:28.219Z,101233.42
2019-05-07T00:39:21.961Z,101232.70
2019-05-07T00:42:02.941Z,101240.77
2019-05-07T00:44:34.515Z,101238.62
2019-05-07T00:47:04.482Z,101236.11
2019-05-07T00:49:34.721Z,101242.03
2019-05-07T00:52:05.003Z,101245.58
2019-05-07T00:54:35.016Z,101244.33
2019-05-07T00:57:05.011Z,101240.41
2019-05-07T00:59:34.809Z,101238.99
2019-05-07T01:02:05.176Z,101240.21
2019-05-07T01:04:35.097Z,101235.22
2019-05-07T01:07:05.193Z,101243.41
2019-05-07T01:09:35.273Z,101239.66
2019-05-07T01:12:06.843Z,101239.84
2019-05-07T01:14:36.803Z,101238.24
2019-05-07T01:17:06.704Z,101232.69
2019-05-07T01:19:37.124Z,101231.98
2019-05-07T01:22:07.526Z,101232.69
2019-05-07T01:24:37.985Z,101234.28
2019-05-07T01:27:08.089Z,101236.95
2019-05-07T01:29:38.048Z,101236.78
2019-05-07T01:32:18.956Z,101236.78
2019-05-07T01:34:54.534Z,101235.53
2019-05-07T01:37:24.520Z,101236.26
2019-05-07T01:39:54.439Z,101240.19
2019-05-07T01:42:24.519Z,101237.86
2019-05-07T01:44:54.916Z,101238.02
2019-05-07T01:47:24.721Z,101236.77
2019-05-07T01:49:55.130Z,101239.45
2019-05-07T01:52:25.338Z,101236.55
2019-05-07T01:54:55.300Z,101239.39
2019-05-07T01:57:25.285Z,101246.54
2019-05-07T01:59:55.480Z,101247.95
2019-05-07T02:02:32.256Z,101247.03
2019-05-07T02:05:27.527Z,101247.37
2019-05-07T02:08:02.929Z,101251.97
2019-05-07T02:10:49.619Z,101249.28
2019-05-07T02:13:21.875Z,101261.38
2019-05-07T02:16:00.226Z,101261.34
2019-05-07T02:18:25.451Z,101269.52
2019-05-07T02:20:55.324Z,101263.09
2019-05-07T02:23:25.181Z,101264.34
2019-05-07T02:25:55.373Z,101272.91
2019-05-07T02:28:25.869Z,101268.92
2019-05-07T02:30:55.783Z,101267.46
2019-05-07T02:33:25.627Z,101270.13
2019-05-07T02:35:55.632Z,101267.09
2019-05-07T02:38:57.608Z,101272.26
2019-05-07T02:41:33.051Z,101152.01
2019-05-07T02:44:04.408Z,101272.41
2019-05-07T02:46:54.110Z,101266.67
2019-05-07T02:49:44.158Z,101272.53
2019-05-07T02:52:26.193Z,101270.70
2019-05-07T02:55:06.885Z,101271.21
2019-05-07T02:57:37.232Z,101272.28
2019-05-07T03:00:07.669Z,101272.81
2019-05-07T03:02:37.633Z,101271.41
2019-05-07T03:05:08.182Z,101277.99
2019-05-07T03:07:38.513Z,101278.89
2019-05-07T03:10:13.748Z,101282.08
2019-05-07T03:12:43.282Z,101280.47
2019-05-07T03:15:16.035Z,101279.56
2019-05-07T03:17:46.592Z,101282.97
2019-05-07T03:20:22.997Z,101278.13
2019-05-07T03:22:54.001Z,101277.73
2019-05-07T03:25:33.888Z,101273.48
2019-05-07T03:28:04.334Z,101280.47
2019-05-07T03:30:45.514Z,101281.17
2019-05-07T03:33:47.201Z,101276.92
2019-05-07T03:36:17.358Z,101275.70
2019-05-07T03:38:47.960Z,101275.33
2019-05-07T03:41:22.503Z,101277.25
2019-05-07T03:43:52.672Z,101276.67
2019-05-07T03:46:23.435Z,101282.17
2019-05-07T03:48:53.818Z,101278.75
2019-05-07T03:51:23.937Z,101258.48
2019-05-07T03:53:55.380Z,101286.44
2019-05-07T03:56:25.750Z,101288.25
2019-05-07T03:58:55.972Z,101281.64
2019-05-07T04:01:26.243Z,101286.28
2019-05-07T04:03:56.860Z,101287.01
2019-05-07T04:06:26.885Z,101285.20
2019-05-07T04:08:57.103Z,101285.67
2019-05-07T04:11:27.018Z,101284.59
2019-05-07T04:13:57.375Z,101288.70
2019-05-07T04:16:28.912Z,101286.53
2019-05-07T04:18:59.262Z,101282.98
2019-05-07T04:21:29.602Z,101286.91
2019-05-07T04:24:28.993Z,101292.31
2019-05-07T04:27:05.720Z,101286.44
2019-05-07T04:29:35.863Z,101291.45
2019-05-07T04:32:06.380Z,101293.61
2019-05-07T04:35:03.609Z,101290.39
2019-05-07T04:37:33.519Z,101294.70
2019-05-07T04:40:06.441Z,101289.36
2019-05-07T04:42:36.509Z,101296.15
2019-05-07T04:45:06.809Z,101289.75
2019-05-07T04:47:43.202Z,101289.62
2019-05-07T04:50:13.656Z,101290.72
2019-05-07T04:52:43.608Z,101292.36
2019-05-07T04:55:14.817Z,101291.85
2019-05-07T04:57:44.903Z,101293.81
2019-05-07T05:00:16.228Z,101297.27
2019-05-07T05:03:17.044Z,101303.22
2019-05-07T05:05:47.971Z,101303.34
2019-05-07T05:08:17.794Z,101305.20
2019-05-07T05:10:47.786Z,101302.41
2019-05-07T05:13:17.671Z,101302.94
2019-05-07T05:15:47.562Z,101297.17
2019-05-07T05:18:17.455Z,101297.28
2019-05-07T05:21:18.563Z,101290.78
2019-05-07T05:23:56.790Z,101290.45
2019-05-07T05:26:26.660Z,101289.12
2019-05-07T05:28:56.647Z,101289.11
2019-05-07T05:31:26.621Z,101290.59
2019-05-07T05:33:57.613Z,101290.67
2019-05-07T05:36:29.029Z,101289.27
2019-05-07T05:38:58.924Z,101299.47
2019-05-07T05:41:30.784Z,101289.43
2019-05-07T05:44:07.557Z,101285.23
2019-05-07T05:46:37.768Z,101292.34
2019-05-07T05:49:08.001Z,101291.95
2019-05-07T05:51:52.384Z,101294.02
2019-05-07T05:54:42.604Z,101292.25
2019-05-07T05:57:19.369Z,101296.49
2019-05-07T06:00:06.806Z,101294.10
2019-05-07T06:02:45.816Z,101295.13
2019-05-07T06:05:34.954Z,101270.77
2019-05-07T06:08:26.914Z,101301.47
2019-05-07T06:11:14.522Z,101292.34
2019-05-07T06:14:18.490Z,101301.77
2019-05-07T06:16:58.747Z,101302.92
2019-05-07T06:19:39.760Z,101301.40
2019-05-07T06:22:27.838Z,101299.95
2019-05-07T06:25:02.391Z,101300.78
2019-05-07T06:27:32.787Z,101308.33
2019-05-07T06:30:05.008Z,101304.91
2019-05-07T06:32:35.977Z,101310.19
2019-05-07T06:35:06.587Z,101312.95
2019-05-07T06:37:36.866Z,101320.48
2019-05-07T06:40:42.379Z,101324.02
2019-05-07T06:43:32.563Z,101323.14
2019-05-07T06:46:04.490Z,101318.07
2019-05-07T06:48:42.428Z,101324.58
2019-05-07T06:51:06.892Z,101318.59
2019-05-07T06:53:37.113Z,101323.16
2019-05-07T06:56:07.643Z,101328.66
2019-05-07T06:58:46.544Z,101327.36
2019-05-07T07:01:34.424Z,101325.68
2019-05-07T07:04:12.904Z,101325.19
2019-05-07T07:07:04.373Z,101326.24
2019-05-07T07:09:43.036Z,101327.09
2019-05-07T07:12:16.861Z,101320.77
2019-05-07T07:14:46.997Z,101319.66
2019-05-07T07:17:17.002Z,101322.82
2019-05-07T07:19:46.950Z,101321.31
2019-05-07T07:22:17.039Z,101317.51
2019-05-07T07:24:48.738Z,101313.15
2019-05-07T07:27:18.734Z,101316.27
2019-05-07T07:29:55.270Z,101319.77
2019-05-07T07:32:32.035Z,101307.87
2019-05-07T07:35:02.520Z,101312.48
2019-05-07T07:37:36.943Z,101313.28
2019-05-07T07:40:18.236Z,101310.76
2019-05-07T07:42:48.201Z,101306.88
2019-05-07T07:45:18.610Z,101304.23
2019-05-07T07:47:48.835Z,101307.77
2019-05-07T07:50:18.769Z,101303.55
2019-05-07T07:52:48.762Z,101308.73
2019-05-07T07:55:22.299Z,101306.12
2019-05-07T07:57:59.752Z,101305.82
2019-05-07T08:00:39.635Z,101308.69
2019-05-07T08:03:13.226Z,101308.83
2019-05-07T08:05:42.881Z,101298.08
2019-05-07T08:08:12.957Z,101298.34
2019-05-07T08:10:44.199Z,101300.35
2019-05-07T08:13:14.317Z,101297.20
2019-05-07T08:15:44.472Z,101303.36
2019-05-07T08:18:14.330Z,101300.74
2019-05-07T08:20:44.699Z,101296.64
2019-05-07T08:23:14.591Z,101297.00
2019-05-07T08:25:52.575Z,101299.66
2019-05-07T08:28:23.399Z,101298.83
2019-05-07T08:31:12.004Z,101299.13
2019-05-07T08:33:51.794Z,101299.75
2019-05-07T08:36:22.617Z,101300.66
2019-05-07T08:38:54.106Z,101299.73
2019-05-07T08:41:26.421Z,101296.64
2019-05-07T08:44:18.871Z,101294.42
2019-05-07T08:47:23.564Z,101289.48
2019-05-07T08:49:53.926Z,101284.56
2019-05-07T08:52:26.140Z,101289.09
2019-05-07T08:54:56.105Z,101288.13
2019-05-07T08:57:26.288Z,101290.87
2019-05-07T09:00:00.996Z,101290.79
2019-05-07T09:02:28.275Z,101295.73
2019-05-07T09:04:58.267Z,101288.75
2019-05-07T09:07:28.428Z,101293.30
2019-05-07T09:09:58.668Z,101288.85
2019-05-07T09:12:28.860Z,101291.16
2019-05-07T09:14:58.677Z,101288.05
2019-05-07T09:17:28.845Z,101277.41
2019-05-07T09:19:58.713Z,101276.19
2019-05-07T09:22:28.663Z,101269.26
2019-05-07T09:24:58.672Z,101268.44
2019-05-07T09:27:34.388Z,101270.13
2019-05-07T09:30:18.663Z,101280.70
2019-05-07T09:32:55.306Z,101271.67
2019-05-07T09:35:32.057Z,101275.75
2019-05-07T09:38:03.191Z,101268.10
2019-05-07T09:40:33.288Z,101268.80
2019-05-07T09:43:04.391Z,101261.80
2019-05-07T09:45:35.305Z,101269.88
2019-05-07T09:48:05.576Z,101266.86
2019-05-07T09:50:35.876Z,101252.31
2019-05-07T09:53:05.890Z,101254.81
2019-05-07T09:55:35.871Z,101244.23
2019-05-07T09:58:05.939Z,101242.89
2019-05-07T10:00:36.330Z,101237.84
2019-05-07T10:03:07.435Z,101230.24
2019-05-07T10:05:37.446Z,101237.95
2019-05-07T10:08:07.445Z,101238.89
2019-05-07T10:10:37.731Z,101236.77
2019-05-07T10:13:19.505Z,101239.59
2019-05-07T10:15:49.580Z,101238.39
2019-05-07T10:18:22.708Z,101233.20
2019-05-07T10:20:52.938Z,101238.39
2019-05-07T10:23:23.385Z,101242.55
2019-05-07T10:25:54.868Z,101241.61
2019-05-07T10:28:25.103Z,101236.34
2019-05-07T10:30:55.622Z,101236.52
2019-05-07T10:33:25.700Z,101235.83
2019-05-07T10:35:55.900Z,101234.87
2019-05-07T10:38:25.786Z,101233.47
2019-05-07T10:40:55.689Z,101231.50
2019-05-07T10:43:25.712Z,101220.06
2019-05-07T10:46:13.792Z,101218.37
2019-05-07T10:48:49.854Z,101213.73
2019-05-07T10:51:21.818Z,101214.81
2019-05-07T10:53:51.980Z,101215.12
2019-05-07T10:56:22.385Z,101214.06
2019-05-07T10:58:52.783Z,101210.34
2019-05-07T11:01:32.759Z,101210.23
2019-05-07T11:04:02.331Z,101204.11
2019-05-07T11:06:32.452Z,101202.27
2019-05-07T11:09:02.328Z,101209.04
2019-05-07T11:11:33.736Z,101197.20
2019-05-07T11:14:03.820Z,101196.70
2019-05-07T11:16:39.977Z,101189.77
2019-05-07T11:19:09.778Z,101190.50
2019-05-07T11:21:41.756Z,101186.94
2019-05-07T11:24:12.163Z,101189.83
2019-05-07T11:26:42.327Z,101187.21
2019-05-07T11:29:13.096Z,101178.36
2019-05-07T11:31:44.041Z,101178.48
2019-05-07T11:34:14.069Z,101181.63
2019-05-07T11:36:44.065Z,101184.58
2019-05-07T11:39:14.456Z,101183.65
2019-05-07T11:41:56.645Z,101177.09
2019-05-07T11:44:28.471Z,101174.73
2019-05-07T11:47:18.458Z,101174.09
2019-05-07T11:50:06.219Z,101174.86
2019-05-07T11:52:39.253Z,101165.59
2019-05-07T11:55:09.318Z,101158.03
2019-05-07T11:57:39.283Z,101161.04
2019-05-07T12:00:16.483Z,101162.27
2019-05-07T12:02:47.315Z,101161.70
2019-05-07T12:05:17.732Z,101155.65
2019-05-07T12:07:47.792Z,101152.63
2019-05-07T12:10:17.804Z,101155.53
2019-05-07T12:12:47.901Z,101153.44
2019-05-07T12:15:18.162Z,101143.97
2019-05-07T12:17:48.067Z,101142.19
2019-05-07T12:20:18.746Z,101140.89
2019-05-07T12:22:48.698Z,101135.23
2019-05-07T12:25:19.486Z,101135.01
2019-05-07T12:27:52.724Z,101125.60
2019-05-07T12:30:57.825Z,101121.52
2019-05-07T12:33:45.507Z,101125.97
2019-05-07T12:36:16.490Z,101116.70
2019-05-07T12:38:46.597Z,101115.47
2019-05-07T12:41:33.843Z,101114.03
2019-05-07T12:44:06.399Z,101120.06
2019-05-07T12:46:37.381Z,101118.30
2019-05-07T12:49:07.546Z,101122.38
2019-05-07T12:51:53.088Z,101118.48
2019-05-07T12:54:37.676Z,101111.89
2019-05-07T12:57:07.472Z,101117.76
2019-05-07T12:59:37.715Z,101099.70
2019-05-07T13:02:40.611Z,101098.89
2019-05-07T13:05:04.818Z,101102.45
2019-05-07T13:07:53.757Z,101094.22
2019-05-07T13:10:23.727Z,101092.16
2019-05-07T13:12:53.724Z,101085.33
2019-05-07T13:15:27.831Z,101093.75
2019-05-07T13:17:55.787Z,101082.64
2019-05-07T13:20:26.397Z,101087.00
2019-05-07T13:22:56.288Z,101075.66
2019-05-07T13:25:28.278Z,101070.90
2019-05-07T13:27:58.136Z,101077.23
2019-05-07T13:30:28.108Z,101069.76
2019-05-07T13:33:01.856Z,101070.95
2019-05-07T13:35:31.814Z,101073.23
2019-05-07T13:38:21.918Z,101066.73
2019-05-07T13:41:25.402Z,101067.36
2019-05-07T13:44:04.447Z,101059.94
2019-05-07T13:46:35.298Z,101057.08
2019-05-07T13:49:05.620Z,101048.47
2019-05-07T13:51:36.071Z,101049.50
2019-05-07T13:54:07.311Z,101043.15
2019-05-07T13:56:37.668Z,101043.64
2019-05-07T13:59:07.863Z,101035.39
2019-05-07T14:02:04.740Z,101034.01
2019-05-07T14:04:32.707Z,101039.33
2019-05-07T14:07:03.492Z,101030.35
2019-05-07T14:09:34.211Z,101036.04
2019-05-07T14:12:04.366Z,101032.52
2019-05-07T14:14:34.697Z,101030.50
2019-05-07T14:17:05.500Z,101024.78
2019-05-07T14:19:35.546Z,101019.20
2019-05-07T14:22:15.291Z,101026.63
2019-05-07T14:24:37.052Z,101026.35
2019-05-07T14:27:07.263Z,101029.62
2019-05-07T14:29:37.474Z,101017.98
2019-05-07T14:32:25.786Z,101014.16
2019-05-07T14:35:12.409Z,101008.97
2019-05-07T14:37:45.979Z,101004.03
2019-05-07T14:40:16.507Z,101007.13
2019-05-07T14:42:52.503Z,101009.94
2019-05-07T14:45:25.763Z,101003.13
2019-05-07T14:47:55.657Z,100998.41
2019-05-07T14:50:25.565Z,100993.44
2019-05-07T14:52:56.535Z,100990.63
2019-05-07T14:55:26.989Z,100996.85
2019-05-07T14:57:59.052Z,100997.14
2019-05-07T15:00:29.312Z,101002.09
2019-05-07T15:02:59.275Z,100998.81
2019-05-07T15:05:29.253Z,101003.34
2019-05-07T15:08:08.325Z,101002.58
2019-05-07T15:10:32.589Z,100997.36
2019-05-07T15:13:02.637Z,100991.80
2019-05-07T15:15:32.612Z,100984.39
2019-05-07T15:18:13.133Z,100983.95
2019-05-07T15:20:43.891Z,100983.42
2019-05-07T15:23:22.647Z,100979.25
2019-05-07T15:25:52.575Z,100985.45
2019-05-07T15:28:22.946Z,100978.70
2019-05-07T15:31:14.786Z,100971.12
2019-05-07T15:33:44.728Z,100969.45
2019-05-07T15:36:15.057Z,100969.55
2019-05-07T15:38:45.462Z,100963.11
2019-05-07T15:41:15.585Z,100969.95
2019-05-07T15:43:46.307Z,100967.08
2019-05-07T15:46:17.328Z,100963.53
2019-05-07T15:48:47.256Z,100960.48
2019-05-07T15:51:17.259Z,100960.56
2019-05-07T15:53:52.923Z,100957.42
2019-05-07T15:56:22.841Z,100954.62
2019-05-07T15:58:52.956Z,100947.89
2019-05-07T16:01:23.039Z,100949.09
2019-05-07T16:03:55.065Z,100949.20
2019-05-07T16:06:25.509Z,100947.67
2019-05-07T16:08:59.545Z,100945.29
2019-05-07T16:11:32.288Z,100946.07
2019-05-07T16:14:26.813Z,100939.13
2019-05-07T16:17:02.584Z,100947.37
2019-05-07T16:19:32.635Z,100938.87
2019-05-07T16:22:12.593Z,100940.64
2019-05-07T16:24:42.241Z,100932.16
2019-05-07T16:27:12.290Z,100933.55
2019-05-07T16:29:42.244Z,100931.89
2019-05-07T16:32:12.369Z,100896.90
2019-05-07T16:34:42.914Z,100928.69
2019-05-07T16:37:12.960Z,100930.13
2019-05-07T16:39:42.875Z,100923.90
2019-05-07T16:42:12.812Z,100919.70
2019-05-07T16:44:42.819Z,100924.73
2019-05-07T16:47:12.949Z,100928.38
2019-05-07T16:49:43.127Z,100925.61
2019-05-07T16:52:13.331Z,100919.49
2019-05-07T16:54:45.259Z,100922.02
2019-05-07T16:57:36.885Z,100920.11
2019-05-07T17:00:10.021Z,100919.98
2019-05-07T17:02:43.896Z,100914.14
2019-05-07T17:05:15.172Z,100916.26
2019-05-07T17:07:52.111Z,100911.80
2019-05-07T17:10:22.523Z,100911.37
2019-05-07T17:12:52.622Z,100909.39
2019-05-07T17:15:24.044Z,100904.27
2019-05-07T17:17:59.445Z,100901.37
2019-05-07T17:20:29.467Z,100903.38
2019-05-07T17:22:59.873Z,100903.08
2019-05-07T17:25:39.488Z,100904.71
2019-05-07T17:28:12.431Z,100909.11
2019-05-07T17:30:42.192Z,100908.07
2019-05-07T17:33:12.953Z,100906.77
2019-05-07T17:35:42.912Z,100905.23
2019-05-07T17:38:13.099Z,100899.64
2019-05-07T17:40:43.208Z,100901.67
2019-05-07T17:43:13.172Z,100904.75
2019-05-07T17:45:43.140Z,100896.64
2019-05-07T17:48:14.050Z,100895.80
2019-05-07T17:50:53.162Z,100893.44
2019-05-07T17:53:23.400Z,100886.70
2019-05-07T17:55:53.544Z,100888.44
2019-05-07T17:58:23.472Z,100893.61
2019-05-07T18:00:57.352Z,100870.28
2019-05-07T18:03:32.674Z,100888.13
2019-05-07T18:06:03.522Z,100891.33
2019-05-07T18:08:33.477Z,100886.99
2019-05-07T18:11:17.359Z,100891.20
2019-05-07T18:13:35.970Z,100868.58
2019-05-07T18:16:23.649Z,100895.30
2019-05-07T18:18:53.810Z,100898.05
2019-05-07T18:21:24.501Z,100898.64
2019-05-07T18:23:54.614Z,100894.27
2019-05-07T18:26:30.715Z,100894.19
2019-05-07T18:28:59.908Z,100897.29
2019-05-07T18:31:55.509Z,100892.69
2019-05-07T18:34:25.856Z,100892.95
2019-05-07T18:36:56.161Z,100890.60
2019-05-07T18:39:26.718Z,100896.21
2019-05-07T18:41:56.525Z,100894.71
2019-05-07T18:44:26.424Z,100891.94
2019-05-07T18:46:56.386Z,100890.47
2019-05-07T18:49:28.372Z,100887.91
2019-05-07T18:51:58.476Z,100895.34
2019-05-07T18:54:31.254Z,100887.11
2019-05-07T18:57:02.412Z,100889.49
2019-05-07T18:59:34.375Z,100888.06
2019-05-07T19:02:04.672Z,100888.91
2019-05-07T19:04:34.883Z,100880.41
2019-05-07T19:07:04.910Z,100882.31
2019-05-07T19:09:34.828Z,100877.69
2019-05-07T19:12:05.889Z,100887.81
2019-05-07T19:14:35.759Z,100893.67
2019-05-07T19:17:05.982Z,100895.47
2019-05-07T19:19:36.125Z,100897.13
2019-05-07T19:22:06.056Z,100902.80
2019-05-07T19:24:45.385Z,100902.22
2019-05-07T19:27:08.179Z,100904.15
2019-05-07T19:29:38.388Z,100903.25
2019-05-07T19:32:12.084Z,100905.91
2019-05-07T19:34:42.064Z,100895.02
2019-05-07T19:37:11.891Z,100901.73
2019-05-07T19:39:42.889Z,100902.26
2019-05-07T19:42:13.069Z,100896.68
2019-05-07T19:44:43.814Z,100896.62
2019-05-07T19:47:13.789Z,100896.03
2019-05-07T19:49:43.646Z,100891.53
2019-05-07T19:52:13.543Z,100896.03
2019-05-07T19:54:57.690Z,100891.53
2019-05-07T19:57:21.122Z,100893.28
2019-05-07T19:59:52.282Z,100894.91
2019-05-07T20:02:27.010Z,100889.00
2019-05-07T20:04:55.945Z,100883.20
2019-05-07T20:07:25.803Z,100886.84
2019-05-07T20:09:56.116Z,100879.84
2019-05-07T20:12:26.045Z,100878.45
2019-05-07T20:14:55.988Z,100875.97
2019-05-07T20:17:25.849Z,100879.67
2019-05-07T20:19:56.442Z,100874.86
2019-05-07T20:22:26.364Z,100882.41
2019-05-07T20:24:56.274Z,100877.78
2019-05-07T20:27:26.239Z,100875.94
2019-05-07T20:29:56.117Z,100872.19
2019-05-07T20:32:26.081Z,100875.47
2019-05-07T20:34:56.127Z,100872.80
2019-05-07T20:37:26.029Z,100869.55
2019-05-07T20:39:55.945Z,100869.86
2019-05-07T20:42:26.271Z,100872.81
2019-05-07T20:44:56.445Z,100867.33
2019-05-07T20:47:26.438Z,100865.50
2019-05-07T20:49:56.225Z,100868.16
2019-05-07T20:52:26.496Z,100864.25
2019-05-07T20:55:05.832Z,100867.56
2019-05-07T20:57:38.693Z,100861.20
2019-05-07T21:00:14.314Z,100853.06
2019-05-07T21:02:48.110Z,100850.22
2019-05-07T21:05:16.636Z,100856.16
2019-05-07T21:07:47.557Z,100851.88
2019-05-07T21:10:17.801Z,100852.75
2019-05-07T21:12:47.734Z,100849.48
2019-05-07T21:15:17.748Z,100856.22
2019-05-07T21:17:48.272Z,100849.53
2019-05-07T21:20:19.386Z,100847.98
2019-05-07T21:22:49.214Z,100847.17
2019-05-07T21:25:19.257Z,100846.34
2019-05-07T21:27:49.172Z,100846.98
2019-05-07T21:30:19.818Z,100841.67
2019-05-07T21:32:51.748Z,100840.95
2019-05-07T21:35:22.470Z,100842.28
2019-05-07T21:37:52.645Z,100834.88
2019-05-07T21:40:22.832Z,100837.83
2019-05-07T21:42:53.158Z,100839.15
2019-05-07T21:45:24.346Z,100834.55
2019-05-07T21:47:54.524Z,100831.34
2019-05-07T21:50:25.336Z,100819.96
2019-05-07T21:53:02.819Z,100819.96
2019-05-07T21:55:44.055Z,100816.08
2019-05-07T21:58:38.081Z,100812.98
2019-05-07T22:01:15.063Z,100811.05
2019-05-07T22:03:49.009Z,100811.32
2019-05-07T22:06:18.927Z,100797.86
2019-05-07T22:08:48.728Z,100795.91
2019-05-07T22:11:19.228Z,100796.13
2019-05-07T22:13:49.205Z,100790.09
2019-05-07T22:16:22.003Z,100796.05
2019-05-07T22:18:52.199Z,100790.94
2019-05-07T22:21:22.186Z,100788.10
2019-05-07T22:23:52.422Z,100782.42
2019-05-07T22:26:26.223Z,100777.61
2019-05-07T22:28:54.100Z,100775.17
2019-05-07T22:31:31.172Z,100777.35
2019-05-07T22:34:22.123Z,100772.18
2019-05-07T22:36:55.053Z,100770.62
2019-05-07T22:39:29.697Z,100767.79
2019-05-07T22:42:02.393Z,100762.33
2019-05-07T22:44:33.228Z,100754.25
2019-05-07T22:47:22.412Z,100753.75
2019-05-07T22:49:53.533Z,100763.31
2019-05-07T22:52:23.667Z,100752.80
2019-05-07T22:54:54.182Z,100751.59
2019-05-07T22:57:42.162Z,100752.20
2019-05-07T23:00:16.902Z,100742.37
2019-05-07T23:02:46.755Z,100738.27
2019-05-07T23:05:16.648Z,100735.25
2019-05-07T23:07:46.766Z,100734.06
2019-05-07T23:10:16.726Z,100729.06
2019-05-07T23:12:46.511Z,100727.88
2019-05-07T23:15:17.331Z,100723.66
2019-05-07T23:17:47.222Z,100721.17
2019-05-07T23:20:17.451Z,100717.47
2019-05-07T23:22:47.337Z,100718.28
2019-05-07T23:25:17.126Z,100713.83
2019-05-07T23:27:47.408Z,100706.51
2019-05-07T23:30:17.729Z,100707.46
2019-05-07T23:32:47.602Z,100713.55
2019-05-07T23:35:17.617Z,100703.97
2019-05-07T23:37:47.945Z,100701.13
2019-05-07T23:40:31.612Z,100698.67
2019-05-07T23:43:03.265Z,100694.75
2019-05-07T23:45:33.785Z,100699.28
2019-05-07T23:48:04.554Z,100697.39
2019-05-07T23:50:36.419Z,100697.84
2019-05-07T23:53:13.011Z,100691.44
2019-05-07T23:55:44.248Z,100686.80
2019-05-07T23:58:17.078Z,100683.99
